createdAt,value
2018-06-09T00:01:25.860Z,19.97
2018-06-09T00:03:53.233Z,20.50
2018-06-09T00:06:20.617Z,20.37
2018-06-09T00:08:48.003Z,20.40
2018-06-09T00:11:15.602Z,21.03
2018-06-09T00:13:43.033Z,21.23
2018-06-09T00:16:10.418Z,21.77
2018-06-09T00:18:37.843Z,20.03
2018-06-09T00:21:05.256Z,20.43
2018-06-09T00:23:32.619Z,20.43
2018-06-09T00:26:00.036Z,22.57
2018-06-09T00:28:27.419Z,20.87
2018-06-09T00:30:54.794Z,22.43
2018-06-09T00:33:22.184Z,22.93
2018-06-09T00:35:49.656Z,21.90
2018-06-09T00:38:17.038Z,21.00
2018-06-09T00:40:44.424Z,21.97
2018-06-09T00:43:11.822Z,22.47
2018-06-09T00:45:39.211Z,22.63
2018-06-09T00:48:06.625Z,21.67
2018-06-09T00:50:34.078Z,21.40
2018-06-09T00:53:01.487Z,20.70
2018-06-09T00:55:28.896Z,22.40
2018-06-09T00:57:56.312Z,21.70
2018-06-09T01:00:23.754Z,23.67
2018-06-09T01:02:51.192Z,21.47
2018-06-09T01:05:19.472Z,23.90
2018-06-09T01:07:46.888Z,22.43
2018-06-09T01:10:14.300Z,22.63
2018-06-09T01:12:41.719Z,26.20
2018-06-09T01:15:09.149Z,24.43
2018-06-09T01:17:36.537Z,21.20
2018-06-09T01:20:03.992Z,23.60
2018-06-09T01:22:31.392Z,20.57
2018-06-09T01:24:58.752Z,23.77
2018-06-09T01:27:26.141Z,22.73
2018-06-09T01:29:53.532Z,23.80
2018-06-09T01:32:20.919Z,22.70
2018-06-09T01:34:48.309Z,22.83
2018-06-09T01:37:15.729Z,25.33
2018-06-09T01:39:43.107Z,23.07
2018-06-09T01:42:10.506Z,21.23
2018-06-09T01:44:37.907Z,23.60
2018-06-09T01:47:05.279Z,22.50
2018-06-09T01:49:32.676Z,22.90
2018-06-09T01:52:00.081Z,23.27
2018-06-09T01:54:27.480Z,20.97
2018-06-09T01:56:54.916Z,21.70
2018-06-09T01:59:22.307Z,22.70
2018-06-09T02:01:49.662Z,21.70
2018-06-09T02:04:17.050Z,24.23
2018-06-09T02:06:44.450Z,20.00
2018-06-09T02:09:11.819Z,19.90
2018-06-09T02:11:39.194Z,21.77
2018-06-09T02:14:06.581Z,23.33
2018-06-09T02:16:33.968Z,23.23
2018-06-09T02:19:01.431Z,20.70
2018-06-09T02:21:28.855Z,21.03
2018-06-09T02:23:56.254Z,20.67
2018-06-09T02:26:23.626Z,21.10
2018-06-09T02:28:51.014Z,20.60
2018-06-09T02:31:18.394Z,18.20
2018-06-09T02:33:45.808Z,19.93
2018-06-09T02:36:13.186Z,20.57
2018-06-09T02:38:40.557Z,22.50
2018-06-09T02:41:07.923Z,20.13
2018-06-09T02:43:35.315Z,19.47
2018-06-09T02:46:02.695Z,17.87
2018-06-09T02:48:30.083Z,20.40
2018-06-09T02:50:57.496Z,19.17
2018-06-09T02:53:24.911Z,20.47
2018-06-09T02:55:52.271Z,21.43
2018-06-09T02:58:19.672Z,22.37
2018-06-09T03:00:47.051Z,24.23
2018-06-09T03:03:14.443Z,21.10
2018-06-09T03:05:41.827Z,17.90
2018-06-09T03:08:09.243Z,20.53
2018-06-09T03:10:36.679Z,18.83
2018-06-09T03:13:04.092Z,22.00
2018-06-09T03:15:31.508Z,19.17
2018-06-09T03:17:58.917Z,19.47
2018-06-09T03:20:26.316Z,20.40
2018-06-09T03:22:53.702Z,20.60
2018-06-09T03:25:21.082Z,22.77
2018-06-09T03:27:48.467Z,23.53
2018-06-09T03:30:15.839Z,22.20
2018-06-09T03:32:43.195Z,22.53
2018-06-09T03:35:10.611Z,22.53
2018-06-09T03:37:37.979Z,21.90
2018-06-09T03:40:05.403Z,19.60
2018-06-09T03:42:32.796Z,20.67
2018-06-09T03:45:00.205Z,20.87
2018-06-09T03:47:27.580Z,19.90
2018-06-09T03:49:54.971Z,22.07
2018-06-09T03:52:22.333Z,23.53
2018-06-09T03:54:49.722Z,22.63
2018-06-09T03:57:17.095Z,18.77
2018-06-09T03:59:44.459Z,21.57
2018-06-09T04:02:11.822Z,22.33
2018-06-09T04:04:39.235Z,21.70
2018-06-09T04:07:06.595Z,22.23
2018-06-09T04:09:34.015Z,20.60
2018-06-09T04:12:01.396Z,22.37
2018-06-09T04:14:28.766Z,21.47
2018-06-09T04:16:56.159Z,21.17
2018-06-09T04:19:23.607Z,22.23
2018-06-09T04:21:50.992Z,23.70
2018-06-09T04:24:18.373Z,25.63
2018-06-09T04:26:45.789Z,22.63
2018-06-09T04:29:13.154Z,21.77
2018-06-09T04:31:40.539Z,21.83
2018-06-09T04:34:07.936Z,23.60
2018-06-09T04:36:35.335Z,20.63
2018-06-09T04:39:04.595Z,24.03
2018-06-09T04:41:31.977Z,22.97
2018-06-09T04:43:59.346Z,25.50
2018-06-09T04:46:26.741Z,21.70
2018-06-09T04:48:54.123Z,21.90
2018-06-09T04:51:21.511Z,25.00
2018-06-09T04:53:48.904Z,24.40
2018-06-09T04:56:16.330Z,22.13
2018-06-09T04:58:43.690Z,22.73
2018-06-09T05:01:11.068Z,20.90
2018-06-09T05:03:38.456Z,21.77
2018-06-09T05:06:05.833Z,19.37
2018-06-09T05:08:33.235Z,21.60
2018-06-09T05:11:00.640Z,19.77
2018-06-09T05:13:28.020Z,18.10
2018-06-09T05:15:55.406Z,20.23
2018-06-09T05:18:22.861Z,20.37
2018-06-09T05:20:50.204Z,17.33
2018-06-09T05:23:17.577Z,21.03
2018-06-09T05:25:44.963Z,19.17
2018-06-09T05:28:12.352Z,20.00
2018-06-09T05:30:39.750Z,18.57
2018-06-09T05:33:07.132Z,19.97
2018-06-09T05:35:34.523Z,21.23
2018-06-09T05:38:01.915Z,20.57
2018-06-09T05:40:29.315Z,18.90
2018-06-09T05:42:56.679Z,18.80
2018-06-09T05:45:24.071Z,18.53
2018-06-09T05:47:51.463Z,19.03
2018-06-09T05:50:18.859Z,22.23
2018-06-09T05:52:46.239Z,18.00
2018-06-09T05:55:13.658Z,18.67
2018-06-09T05:57:41.031Z,16.67
2018-06-09T06:00:08.492Z,16.10
2018-06-09T06:02:35.893Z,16.97
2018-06-09T06:05:03.523Z,17.10
2018-06-09T06:07:30.914Z,13.83
2018-06-09T06:09:58.306Z,19.03
2018-06-09T06:12:25.671Z,17.50
2018-06-09T06:14:53.046Z,17.33
2018-06-09T06:17:20.628Z,15.70
2018-06-09T06:19:47.994Z,15.30
2018-06-09T06:22:15.371Z,16.57
2018-06-09T06:24:42.751Z,14.57
2018-06-09T06:27:10.122Z,15.27
2018-06-09T06:29:37.503Z,15.47
2018-06-09T06:32:05.024Z,14.63
2018-06-09T06:34:32.460Z,16.90
2018-06-09T06:36:59.840Z,16.93
2018-06-09T06:39:27.218Z,14.43
2018-06-09T06:41:54.610Z,15.03
2018-06-09T06:44:21.995Z,14.93
2018-06-09T06:46:49.387Z,13.33
2018-06-09T06:49:16.747Z,16.73
2018-06-09T06:51:44.139Z,16.27
2018-06-09T06:54:11.637Z,14.80
2018-06-09T06:56:39.014Z,15.27
2018-06-09T06:59:06.430Z,15.23
2018-06-09T07:01:33.811Z,13.60
2018-06-09T07:04:01.190Z,14.27
2018-06-09T07:06:28.588Z,12.40
2018-06-09T07:08:55.980Z,14.47
2018-06-09T07:11:23.375Z,13.77
2018-06-09T07:13:50.763Z,12.60
2018-06-09T07:16:18.167Z,15.27
2018-06-09T07:18:45.551Z,16.83
2018-06-09T07:21:12.919Z,13.80
2018-06-09T07:23:40.318Z,14.77
2018-06-09T07:26:07.728Z,13.87
2018-06-09T07:28:35.110Z,14.03
2018-06-09T07:31:02.517Z,15.20
2018-06-09T07:33:29.878Z,15.70
2018-06-09T07:35:57.270Z,13.40
2018-06-09T07:38:24.671Z,12.37
2018-06-09T07:40:52.088Z,15.33
2018-06-09T07:43:19.511Z,12.77
2018-06-09T07:45:46.915Z,13.47
2018-06-09T07:48:14.312Z,13.07
2018-06-09T07:50:41.674Z,15.27
2018-06-09T07:53:09.066Z,15.97
2018-06-09T07:55:36.450Z,14.77
2018-06-09T07:58:03.843Z,13.93
2018-06-09T08:00:31.247Z,14.23
2018-06-09T08:02:58.633Z,16.23
2018-06-09T08:05:26.014Z,13.03
2018-06-09T08:07:53.415Z,12.30
2018-06-09T08:10:20.832Z,12.87
2018-06-09T08:12:48.231Z,13.17
2018-06-09T08:17:49.739Z,11.80
2018-06-09T08:20:17.120Z,13.87
2018-06-09T08:22:44.585Z,13.43
2018-06-09T08:25:11.996Z,11.67
2018-06-09T08:27:45.132Z,14.33
2018-06-09T08:30:18.664Z,12.77
2018-06-09T08:32:46.067Z,14.30
2018-06-09T08:35:13.447Z,14.33
2018-06-09T08:37:40.864Z,12.23
2018-06-09T08:40:08.271Z,12.03
2018-06-09T08:42:35.659Z,13.53
2018-06-09T08:45:03.143Z,13.40
2018-06-09T08:47:30.523Z,13.63
2018-06-09T08:49:57.928Z,13.17
2018-06-09T08:52:25.314Z,13.40
2018-06-09T08:54:52.699Z,12.53
2018-06-09T08:57:20.096Z,11.87
2018-06-09T08:59:47.495Z,16.33
2018-06-09T09:02:14.858Z,12.73
2018-06-09T09:04:42.224Z,12.50
2018-06-09T09:07:09.667Z,11.00
2018-06-09T09:09:37.059Z,12.67
2018-06-09T09:12:04.465Z,10.27
2018-06-09T09:14:31.883Z,11.77
2018-06-09T09:16:59.330Z,10.63
2018-06-09T09:19:26.727Z,12.00
2018-06-09T09:21:54.276Z,12.13
2018-06-09T09:24:21.644Z,13.43
2018-06-09T09:26:49.087Z,11.13
2018-06-09T09:29:16.491Z,12.75
2018-06-09T09:31:43.869Z,11.90
2018-06-09T09:34:11.240Z,13.23
2018-06-09T09:36:38.637Z,12.43
2018-06-09T09:39:07.616Z,10.95
2018-06-09T09:41:35.179Z,10.63
2018-06-09T09:44:02.999Z,10.38
2018-06-09T09:46:30.393Z,12.15
2018-06-09T09:48:57.783Z,12.65
2018-06-09T09:51:25.258Z,12.05
2018-06-09T09:53:52.659Z,10.07
2018-06-09T09:56:20.100Z,13.18
2018-06-09T09:58:47.495Z,10.48
2018-06-09T10:01:14.932Z,11.57
2018-06-09T10:03:42.339Z,12.75
2018-06-09T10:06:09.960Z,12.43
2018-06-09T10:08:37.342Z,12.82
2018-06-09T10:11:04.772Z,11.80
2018-06-09T10:13:32.211Z,10.78
2018-06-09T10:15:59.610Z,12.20
2018-06-09T10:18:27.037Z,14.53
2018-06-09T10:20:54.415Z,12.03
2018-06-09T10:23:21.803Z,12.33
2018-06-09T10:25:49.191Z,13.98
2018-06-09T10:28:16.619Z,11.95
2018-06-09T10:30:44.050Z,12.35
2018-06-09T10:33:11.425Z,10.03
2018-06-09T10:35:38.811Z,12.25
2018-06-09T10:38:06.204Z,10.63
2018-06-09T10:40:33.594Z,10.68
2018-06-09T10:43:01.013Z,11.65
2018-06-09T10:45:28.404Z,12.53
2018-06-09T10:47:55.788Z,11.78
2018-06-09T10:50:23.172Z,11.85
2018-06-09T10:52:50.602Z,17.05
2018-06-09T10:55:18.164Z,15.00
2018-06-09T10:57:45.562Z,12.35
2018-06-09T11:00:12.968Z,13.68
2018-06-09T11:02:40.354Z,11.83
2018-06-09T11:05:07.744Z,10.88
2018-06-09T11:07:35.120Z,10.93
2018-06-09T11:10:02.583Z,11.18
2018-06-09T11:12:30.019Z,11.57
2018-06-09T11:14:57.413Z,10.93
2018-06-09T11:17:24.811Z,11.50
2018-06-09T11:19:52.177Z,10.72
2018-06-09T11:22:19.611Z,11.10
2018-06-09T11:24:47.004Z,12.15
2018-06-09T11:27:14.393Z,10.95
2018-06-09T11:29:41.811Z,12.60
2018-06-09T11:32:09.251Z,10.88
2018-06-09T11:34:36.644Z,11.53
2018-06-09T11:37:04.058Z,12.28
2018-06-09T11:39:31.469Z,12.75
2018-06-09T11:41:58.847Z,11.30
2018-06-09T11:44:26.220Z,11.60
2018-06-09T11:46:53.849Z,13.40
2018-06-09T11:49:21.216Z,11.97
2018-06-09T11:51:48.604Z,11.75
2018-06-09T11:54:15.996Z,12.47
2018-06-09T11:56:43.379Z,11.55
2018-06-09T11:59:10.751Z,11.05
2018-06-09T12:01:38.136Z,10.18
2018-06-09T12:04:05.543Z,11.00
2018-06-09T12:06:32.915Z,11.68
2018-06-09T12:09:00.302Z,14.50
2018-06-09T12:11:27.698Z,13.22
2018-06-09T12:13:55.086Z,13.25
2018-06-09T12:16:22.487Z,11.80
2018-06-09T12:18:49.882Z,11.70
2018-06-09T12:21:17.300Z,12.37
2018-06-09T12:23:44.876Z,13.58
2018-06-09T12:26:12.355Z,11.38
2018-06-09T12:28:39.730Z,12.88
2018-06-09T12:31:07.348Z,10.18
2018-06-09T12:33:34.755Z,11.60
2018-06-09T12:36:02.182Z,10.18
2018-06-09T12:38:29.584Z,14.10
2018-06-09T12:40:56.954Z,10.80
2018-06-09T12:43:24.319Z,9.95
2018-06-09T12:45:51.700Z,9.78
2018-06-09T12:48:19.079Z,10.82
2018-06-09T12:50:46.460Z,11.60
2018-06-09T12:53:13.852Z,9.20
2018-06-09T12:55:41.237Z,12.60
2018-06-09T12:58:08.618Z,11.73
2018-06-09T13:00:35.996Z,10.55
2018-06-09T13:03:03.364Z,10.03
2018-06-09T13:05:30.780Z,10.85
2018-06-09T13:07:58.182Z,11.63
2018-06-09T13:10:25.569Z,11.25
2018-06-09T13:12:52.964Z,11.05
2018-06-09T13:15:20.676Z,10.75
2018-06-09T13:17:48.102Z,9.48
2018-06-09T13:20:15.492Z,10.63
2018-06-09T13:22:42.944Z,9.78
2018-06-09T13:25:10.333Z,10.95
2018-06-09T13:27:37.743Z,12.93
2018-06-09T13:30:05.168Z,12.07
2018-06-09T13:32:32.576Z,8.68
2018-06-09T13:34:59.987Z,11.20
2018-06-09T13:37:27.367Z,11.68
2018-06-09T13:39:54.754Z,10.32
2018-06-09T13:42:22.141Z,10.00
2018-06-09T13:44:49.556Z,10.93
2018-06-09T13:47:16.934Z,10.72
2018-06-09T13:49:44.315Z,13.35
2018-06-09T13:52:11.731Z,13.80
2018-06-09T13:54:39.141Z,8.58
2018-06-09T13:57:06.502Z,11.15
2018-06-09T13:59:33.910Z,10.75
2018-06-09T14:02:01.294Z,9.03
2018-06-09T14:04:28.670Z,11.45
2018-06-09T14:06:56.110Z,10.25
2018-06-09T14:09:23.536Z,10.32
2018-06-09T14:11:50.931Z,10.15
2018-06-09T14:14:18.367Z,9.90
2018-06-09T14:16:45.803Z,9.83
2018-06-09T14:19:13.195Z,8.30
2018-06-09T14:21:40.862Z,10.98
2018-06-09T14:24:08.283Z,11.20
2018-06-09T14:26:35.680Z,8.55
2018-06-09T14:29:03.096Z,9.50
2018-06-09T14:31:30.455Z,9.63
2018-06-09T14:33:57.846Z,8.78
2018-06-09T14:36:25.261Z,10.58
2018-06-09T14:38:52.678Z,9.90
2018-06-09T14:41:20.078Z,9.43
2018-06-09T14:43:47.461Z,13.18
2018-06-09T14:46:14.852Z,9.05
2018-06-09T14:48:42.223Z,11.50
2018-06-09T14:51:09.617Z,9.68
2018-06-09T14:53:36.995Z,9.28
2018-06-09T14:56:04.418Z,10.15
2018-06-09T14:58:31.851Z,8.73
2018-06-09T15:00:59.231Z,8.70
2018-06-09T15:03:26.612Z,8.50
2018-06-09T15:05:54.025Z,9.75
2018-06-09T15:08:21.413Z,10.05
2018-06-09T15:10:48.849Z,8.73
2018-06-09T15:13:16.303Z,9.50
2018-06-09T15:15:43.717Z,8.70
2018-06-09T15:18:11.137Z,8.93
2018-06-09T15:20:38.544Z,13.22
2018-06-09T15:23:05.984Z,8.53
2018-06-09T15:25:33.669Z,10.45
2018-06-09T15:28:01.197Z,9.23
2018-06-09T15:30:28.591Z,9.23
2018-06-09T15:32:55.994Z,7.92
2018-06-09T15:35:23.399Z,9.95
2018-06-09T15:37:50.860Z,10.20
2018-06-09T15:40:18.279Z,10.72
2018-06-09T15:42:45.685Z,9.65
2018-06-09T15:45:13.126Z,9.55
2018-06-09T15:47:40.515Z,9.93
2018-06-09T15:50:07.925Z,9.28
2018-06-09T15:52:35.379Z,9.85
2018-06-09T15:55:02.798Z,10.00
2018-06-09T15:57:30.224Z,11.90
2018-06-09T15:59:57.886Z,10.30
2018-06-09T16:02:25.855Z,12.90
2018-06-09T16:04:53.282Z,14.50
2018-06-09T16:07:20.851Z,9.85
2018-06-09T16:09:48.239Z,10.00
2018-06-09T16:12:15.729Z,10.10
2018-06-09T16:14:43.147Z,10.80
2018-06-09T16:17:10.563Z,10.58
2018-06-09T16:19:38.029Z,9.60
2018-06-09T16:22:05.441Z,9.25
2018-06-09T16:24:32.810Z,9.60
2018-06-09T16:27:00.207Z,9.00
2018-06-09T16:29:27.665Z,8.83
2018-06-09T16:31:55.028Z,11.05
2018-06-09T16:34:22.423Z,9.15
2018-06-09T16:36:49.832Z,8.55
2018-06-09T16:39:17.215Z,8.40
2018-06-09T16:41:44.650Z,8.80
2018-06-09T16:44:12.052Z,8.13
2018-06-09T16:46:39.439Z,7.75
2018-06-09T16:49:24.423Z,7.85
2018-06-09T16:52:09.559Z,7.90
2018-06-09T16:54:54.491Z,7.03
2018-06-09T16:57:27.938Z,8.00
2018-06-09T16:59:55.347Z,8.00
2018-06-09T17:02:22.748Z,7.60
2018-06-09T17:04:50.119Z,7.87
2018-06-09T17:07:17.874Z,8.05
2018-06-09T17:09:56.773Z,7.92
2018-06-09T17:12:30.225Z,9.35
2018-06-09T17:17:30.795Z,9.28
2018-06-09T17:19:58.183Z,8.25
2018-06-09T17:22:25.587Z,8.40
2018-06-09T17:24:59.299Z,8.08
2018-06-09T17:27:26.785Z,8.15
2018-06-09T17:29:54.190Z,7.28
2018-06-09T17:32:21.595Z,7.22
2018-06-09T17:34:49.058Z,7.53
2018-06-09T17:37:22.804Z,7.08
2018-06-09T17:39:50.197Z,10.15
2018-06-09T17:42:17.575Z,8.48
2018-06-09T17:44:45.487Z,7.33
2018-06-09T17:47:12.879Z,8.15
2018-06-09T17:49:40.303Z,7.33
2018-06-09T17:52:07.699Z,7.55
2018-06-09T17:54:35.130Z,7.95
2018-06-09T17:57:02.546Z,6.87
2018-06-09T17:59:30.214Z,8.65
2018-06-09T18:01:57.632Z,6.60
2018-06-09T18:04:25.037Z,7.10
2018-06-09T18:06:52.425Z,8.30
2018-06-09T18:09:19.822Z,7.67
2018-06-09T18:11:47.200Z,7.33
2018-06-09T18:14:14.663Z,6.55
2018-06-09T18:16:42.059Z,7.72
2018-06-09T18:19:09.476Z,6.78
2018-06-09T18:21:36.929Z,7.97
2018-06-09T18:24:04.354Z,8.03
2018-06-09T18:26:31.791Z,7.20
2018-06-09T18:28:59.145Z,8.58
2018-06-09T18:31:26.553Z,6.80
2018-06-09T18:33:53.976Z,8.45
2018-06-09T18:36:21.371Z,9.18
2018-06-09T18:38:48.764Z,6.42
2018-06-09T18:41:16.148Z,6.17
2018-06-09T18:43:43.643Z,6.70
2018-06-09T18:46:11.039Z,6.55
2018-06-09T18:48:38.445Z,9.05
2018-06-09T18:51:05.847Z,6.80
2018-06-09T18:53:33.235Z,6.20
2018-06-09T18:56:00.620Z,7.92
2018-06-09T18:58:28.053Z,6.83
2018-06-09T19:00:55.437Z,7.53
2018-06-09T19:03:22.827Z,6.97
2018-06-09T19:05:50.429Z,8.63
2018-06-09T19:08:17.822Z,8.25
2018-06-09T19:10:45.223Z,7.30
2018-06-09T19:13:12.638Z,7.70
2018-06-09T19:15:40.015Z,7.33
2018-06-09T19:18:07.408Z,8.50
2018-06-09T19:20:35.096Z,6.85
2018-06-09T19:23:02.507Z,7.63
2018-06-09T19:25:29.920Z,8.87
2018-06-09T19:27:57.331Z,9.00
2018-06-09T19:30:24.765Z,8.47
2018-06-09T19:32:52.174Z,8.73
2018-06-09T19:35:19.608Z,7.83
2018-06-09T19:37:46.987Z,7.90
2018-06-09T19:40:14.448Z,8.70
2018-06-09T19:42:41.891Z,7.90
2018-06-09T19:45:09.291Z,8.67
2018-06-09T19:47:36.664Z,8.63
2018-06-09T19:50:04.342Z,8.50
2018-06-09T19:52:31.719Z,10.33
2018-06-09T19:54:59.143Z,8.90
2018-06-09T19:57:26.610Z,9.53
2018-06-09T19:59:54.076Z,7.73
2018-06-09T20:02:21.493Z,9.57
2018-06-09T20:04:48.884Z,8.23
2018-06-09T20:07:16.285Z,7.40
2018-06-09T20:09:44.076Z,8.60
2018-06-09T20:12:11.650Z,7.97
2018-06-09T20:14:39.037Z,7.90
2018-06-09T20:17:06.448Z,8.43
2018-06-09T20:19:33.873Z,8.73
2018-06-09T20:22:01.292Z,8.60
2018-06-09T20:24:28.707Z,10.93
2018-06-09T20:26:56.191Z,8.57
2018-06-09T20:29:23.604Z,10.83
2018-06-09T20:31:51.063Z,7.87
2018-06-09T20:34:18.476Z,8.63
2018-06-09T20:36:45.931Z,10.33
2018-06-09T20:39:13.332Z,9.33
2018-06-09T20:41:40.795Z,10.03
2018-06-09T20:44:08.692Z,8.47
2018-06-09T20:46:36.125Z,8.87
2018-06-09T20:49:03.978Z,10.03
2018-06-09T20:51:31.455Z,8.33
2018-06-09T20:53:58.903Z,12.40
2018-06-09T20:56:26.329Z,11.53
2018-06-09T20:58:53.704Z,13.13
2018-06-09T21:01:21.141Z,7.80
2018-06-09T21:03:48.612Z,8.00
2018-06-09T21:06:16.104Z,10.47
2018-06-09T21:08:43.518Z,10.77
2018-06-09T21:11:10.982Z,9.23
2018-06-09T21:13:38.384Z,8.77
2018-06-09T21:16:05.824Z,9.63
2018-06-09T21:18:33.276Z,10.37
2018-06-09T21:21:00.696Z,10.80
2018-06-09T21:23:28.108Z,10.80
2018-06-09T21:25:55.552Z,11.17
2018-06-09T21:28:25.633Z,8.93
2018-06-09T21:30:54.956Z,9.67
2018-06-09T21:33:38.908Z,10.97
2018-06-09T21:36:11.928Z,9.40
2018-06-09T21:38:45.133Z,10.27
2018-06-09T21:41:18.337Z,9.17
2018-06-09T21:43:51.735Z,9.57
2018-06-09T21:46:24.924Z,9.40
2018-06-09T21:48:52.364Z,9.03
2018-06-09T21:51:19.839Z,10.07
2018-06-09T21:53:47.245Z,13.40
2018-06-09T21:56:14.676Z,8.73
2018-06-09T21:58:42.041Z,9.30
2018-06-09T22:01:09.447Z,7.90
2018-06-09T22:03:36.845Z,10.10
2018-06-09T22:06:04.279Z,8.47
2018-06-09T22:08:31.676Z,10.13
2018-06-09T22:10:59.142Z,8.90
2018-06-09T22:13:26.592Z,8.40
2018-06-09T22:15:54.005Z,9.43
2018-06-09T22:18:21.419Z,11.20
2018-06-09T22:20:48.803Z,9.03
2018-06-09T22:23:16.355Z,10.77
2018-06-09T22:25:49.509Z,7.80
2018-06-09T22:28:16.915Z,8.77
2018-06-09T22:30:44.296Z,11.17
2018-06-09T22:33:11.775Z,7.97
2018-06-09T22:35:39.145Z,9.77
2018-06-09T22:38:06.551Z,11.07
2018-06-09T22:40:33.952Z,17.33
2018-06-09T22:43:01.330Z,11.37
2018-06-09T22:45:28.732Z,11.43
2018-06-09T22:47:56.139Z,12.87
2018-06-09T22:50:23.535Z,8.60
2018-06-09T22:52:50.920Z,9.27
2018-06-09T22:55:18.335Z,10.80
2018-06-09T22:57:45.718Z,9.63
2018-06-09T23:00:29.357Z,21.87
2018-06-09T23:02:57.016Z,32.63
2018-06-09T23:05:24.391Z,43.73
2018-06-09T23:07:51.808Z,18.37
2018-06-09T23:10:19.209Z,12.47
2018-06-09T23:12:46.595Z,8.63
2018-06-09T23:15:13.963Z,9.03
2018-06-09T23:17:41.401Z,12.13
2018-06-09T23:20:08.783Z,9.47
2018-06-09T23:22:36.191Z,10.20
2018-06-09T23:25:03.833Z,14.50
2018-06-09T23:27:31.208Z,10.10
2018-06-09T23:29:58.577Z,8.80
2018-06-09T23:32:25.963Z,9.37
2018-06-09T23:34:53.344Z,12.57
2018-06-09T23:37:20.748Z,10.47
2018-06-09T23:39:48.275Z,12.47
2018-06-09T23:42:15.653Z,9.90
2018-06-09T23:44:43.034Z,11.00
2018-06-09T23:47:10.438Z,9.77
2018-06-09T23:49:37.843Z,9.13
2018-06-09T23:52:05.246Z,9.90
2018-06-09T23:54:32.624Z,10.90
2018-06-09T23:57:00.036Z,11.50
2018-06-09T23:59:27.421Z,12.73
